Flight Track Log - Related Links

Times and Time Zones

All times are in EDT time to prevent confusion due to time zone crossing. See the SWA4281 flight status page for this flight to view local times or setup timezone preferences in your user account.

Time Position Orientation Groundspeed Altitude Reporting Facility
EDT Latitude Longitude Course Direction KTS MPH feet Rate Location/Type
Fri 05:14:27 PM 39.6667 -86.3667 229° Southwest 204 235 2,900  Level Indianapolis TRACON
Fri 05:15:48 PM 39.6436 -86.4661 253° West 249 287 5,100 2,140 Climbing Indianapolis Center
Fri 05:16:50 PM 39.6239 -86.5653 256° West 279 321 8,000 2,710 Climbing Indianapolis Center
Fri 05:17:52 PM 39.6142 -86.6692 263° West 293 337 10,700 2,710 Climbing Indianapolis Center
Fri 05:18:54 PM 39.6136 -86.8228 270° West 344 396 13,600 2,419 Climbing Indianapolis Center
Fri 05:19:56 PM 39.6131 -86.9569 270° West 365 420 15,700 2,226 Climbing Indianapolis Center
Fri 05:20:58 PM 39.6128 -87.0975 270° West 382 440 18,200 2,419 Climbing Indianapolis Center
Fri 05:22:00 PM 39.6111 -87.2406 269° West 394 453 20,700 2,160 Climbing Indianapolis Center
Fri 05:23:03 PM 39.6094 -87.3875 269° West 403 464 22,700 1,776 Climbing Indianapolis Center
Fri 05:24:05 PM 39.6083 -87.5394 270° West 418 481 24,400 1,935 Climbing Indianapolis Center
Fri 05:25:07 PM 39.6067 -87.7275 269° West 434 499 26,700 1,887 Climbing Indianapolis Center
Fri 05:26:09 PM 39.6047 -87.8844 269° West 436 502 28,300 1,500 Climbing Indianapolis Center
Fri 05:27:11 PM 39.6014 -88.0442 268° West 441 507 29,800 1,645 Climbing Indianapolis Center
Fri 05:28:13 PM 39.5986 -88.2044 269° West 446 513 31,700 1,790 Climbing Indianapolis Center
Fri 05:29:15 PM 39.5942 -88.3858 268° West 442 509 33,500 1,790 Climbing Indianapolis Center
Fri 05:30:17 PM 39.5906 -88.5406 268° West 434 499 35,400 1,597 Climbing Indianapolis Center
Fri 05:31:19 PM 39.5872 -88.6908 268° West 423 487 36,800 1,161 Climbing Indianapolis Center
Fri 05:32:21 PM 39.5831 -88.8397 268° West 417 480 37,800 581 Climbing Indianapolis Center
Fri 05:33:23 PM 39.5808 -88.9889 269° West 414 476 38,000 97 Climbing Indianapolis Center
Fri 05:34:25 PM 39.5767 -89.1381 268° West 414 476 38,000  Level Indianapolis Center
Fri 05:35:27 PM 39.5706 -89.3197 268° West 419 482 38,000  Level Indianapolis Center
Fri 05:36:30 PM 39.5647 -89.4714 267° West 415 478 38,000  Level Indianapolis Center
Fri 05:37:51 PM 39.5606 -89.6511 268° West 414 476 38,000  Level Kansas City Center
Fri 05:38:54 PM 39.5542 -89.8272 267° West 411 473 38,000  Level Kansas City Center
Fri 05:39:55 PM 39.5497 -89.9772 268° West 415 478 38,000  Level Kansas City Center
Fri 05:40:57 PM 39.5450 -90.1258 268° West 417 480 38,000  Level Kansas City Center
Fri 05:41:59 PM 39.5392 -90.2750 267° West 417 480 38,000  Level Kansas City Center
Fri 05:43:02 PM 39.5336 -90.4247 267° West 419 482 38,000  Level Kansas City Center
Fri 05:44:04 PM 39.5281 -90.5736 267° West 418 481 38,000  Level Kansas City Center
Fri 05:45:06 PM 39.5208 -90.7511 267° West 415 478 38,000  Level Kansas City Center
Fri 05:46:08 PM 39.5142 -90.8981 267° West 413 475 38,000  Level Kansas City Center
Fri 05:47:10 PM 39.5089 -91.0436 267° West 411 473 38,000  Level Kansas City Center
Fri 05:48:12 PM 39.5014 -91.1883 266° West 407 468 38,000  Level Kansas City Center
Fri 05:49:14 PM 39.4953 -91.3350 267° West 409 471 38,000  Level Kansas City Center
Fri 05:50:16 PM 39.4861 -91.5108 266° West 409 471 38,000  Level Kansas City Center
Fri 05:51:18 PM 39.4786 -91.6567 266° West 408 470 38,000  Level Kansas City Center
Fri 05:52:20 PM 39.4717 -91.8039 267° West 406 467 38,000  Level Kansas City Center
Fri 05:53:22 PM 39.4642 -91.9497 266° West 407 468 38,000  Level Kansas City Center
Fri 05:54:24 PM 39.4575 -92.0925 267° West 403 464 38,000  Level Kansas City Center
Fri 05:55:26 PM 39.4492 -92.2369 266° West 404 465 38,000  Level Kansas City Center
Fri 05:56:28 PM 39.4400 -92.4122 266° West 406 467 38,000  Level Kansas City Center
Fri 05:57:30 PM 39.4311 -92.5592 266° West 410 472 38,000  Level Kansas City Center
Fri 05:58:32 PM 39.4217 -92.7014 265° West 406 467 38,000  Level Kansas City Center
Fri 05:59:34 PM 39.4139 -92.8464 266° West 404 465 38,000  Level Kansas City Center
Fri 06:00:36 PM 39.4050 -92.9897 265° West 403 464 38,000  Level Kansas City Center
Fri 06:01:38 PM 39.3947 -93.1636 266° West 406 467 38,000  Level Kansas City Center
Fri 06:02:41 PM 39.3853 -93.3075 265° West 405 466 38,000  Level Kansas City Center
Fri 06:03:43 PM 39.3786 -93.4494 267° West 401 461 38,000  Level Kansas City Center
Fri 06:04:45 PM 39.3758 -93.5936 269° West 403 464 38,000  Level Kansas City Center
Fri 06:05:47 PM 39.3692 -93.7475 267° West 403 464 38,000  Level Kansas City Center
Fri 06:06:49 PM 39.3631 -93.9089 267° West 403 464 38,000 -48 Level Kansas City Center
Fri 06:07:51 PM 39.3589 -94.0467 268° West 400 460 37,900  Descending Kansas City Center
Fri 06:08:53 PM 39.3536 -94.1844 267° West 401 461 38,000 48 Climbing Kansas City Center
Fri 06:09:55 PM 39.3469 -94.3428 267° West 398 458 38,000  Level Kansas City Center
Fri 06:10:57 PM 39.3417 -94.4789 267° West 397 457 38,000  Level Kansas City Center
Fri 06:11:59 PM 39.3353 -94.6367 267° West 395 455 38,000  Level Kansas City Center
Fri 06:13:01 PM 39.3272 -94.7750 266° West 401 461 38,000  Level Kansas City Center
Fri 06:14:03 PM 39.3197 -94.9322 267° West 398 458 38,000  Level Kansas City Center
Fri 06:15:05 PM 39.3136 -95.0656 267° West 392 451 38,000  Level Kansas City Center
Fri 06:16:07 PM 39.3047 -95.2333 266° West 392 451 38,000  Level Kansas City Center
Fri 06:17:09 PM 39.2983 -95.3739 267° West 393 452 38,000  Level Kansas City Center
Fri 06:18:11 PM 39.2919 -95.5053 266° West 392 451 38,000  Level Kansas City Center
Fri 06:19:13 PM 39.2842 -95.6594 266° West 388 447 38,000  Level Kansas City Center
Fri 06:20:15 PM 39.2767 -95.7922 266° West 387 445 38,000  Level Kansas City Center
Fri 06:21:17 PM 39.2683 -95.9472 266° West 387 445 38,000  Level Kansas City Center
Fri 06:22:19 PM 39.2611 -96.0783 266° West 384 442 38,000  Level Kansas City Center
Fri 06:23:22 PM 39.2522 -96.2336 266° West 389 448 38,000  Level Kansas City Center
Fri 06:24:24 PM 39.2450 -96.3656 266° West 386 444 38,000  Level Kansas City Center
Fri 06:25:26 PM 39.2356 -96.5203 266° West 389 448 38,000  Level Kansas City Center
Fri 06:26:28 PM 39.2250 -96.6511 264° West 385 443 38,000  Level Kansas City Center
Fri 06:27:30 PM 39.2186 -96.7842 266° West 387 445 38,000  Level Kansas City Center
Fri 06:28:32 PM 39.2078 -96.9389 265° West 388 447 38,000  Level Kansas City Center
Fri 06:29:34 PM 39.1989 -97.0728 265° West 390 449 38,000  Level Kansas City Center
Fri 06:30:36 PM 39.1914 -97.2300 267° West 395 455 38,000  Level Kansas City Center
Fri 06:31:38 PM 39.1825 -97.3639 265° West 391 450 38,000  Level Kansas City Center
Fri 06:32:40 PM 39.1719 -97.5167 265° West 385 443 38,000  Level Kansas City Center
Fri 06:33:42 PM 39.1628 -97.6492 265° West 386 444 38,000  Level Kansas City Center
Fri 06:34:44 PM 39.1519 -97.8025 265° West 387 445 38,000  Level Kansas City Center
Fri 06:35:46 PM 39.1428 -97.9267 265° West 390 449 38,000  Level Kansas City Center
Fri 06:36:48 PM 39.1142 -98.0892 257° West 396 456 38,000  Level Kansas City Center
Fri 06:37:50 PM 39.0739 -98.2089 247° West 376 433 38,000  Level Kansas City Center
Fri 06:38:52 PM 39.0325 -98.3344 247° West 379 436 38,000  Level Kansas City Center
Fri 06:39:54 PM 38.9919 -98.4594 247° West 380 437 38,000  Level Kansas City Center
Fri 06:40:56 PM 38.9536 -98.5853 249° West 380 437 38,000  Level Kansas City Center
Fri 06:41:58 PM 38.9133 -98.7106 248° West 380 437 38,000  Level Kansas City Center
Fri 06:43:00 PM 38.8681 -98.8592 249° West 375 432 38,000  Level Kansas City Center
Fri 06:44:02 PM 38.8150 -98.9725 239° Southwest 372 428 38,000  Level Kansas City Center
Fri 06:45:04 PM 38.7567 -99.0803 235° Southwest 369 425 38,000  Level Kansas City Center
Fri 06:46:07 PM 38.6992 -99.1875 236° Southwest 367 422 38,000  Level Kansas City Center
Fri 06:47:09 PM 38.6403 -99.2967 235° Southwest 372 428 38,000  Level Kansas City Center
Fri 06:48:11 PM 38.5808 -99.4067 235° Southwest 376 433 38,000  Level Kansas City Center
Fri 06:49:13 PM 38.5128 -99.5381 237° Southwest 372 428 38,000  Level Kansas City Center
Fri 06:50:15 PM 38.4542 -99.6519 237° Southwest 376 433 38,000  Level Kansas City Center
Fri 06:51:17 PM 38.4117 -99.7653 244° Southwest 373 429 38,000  Level Kansas City Center
Fri 06:52:19 PM 38.4039 -99.9200 266° West 383 441 38,000  Level Kansas City Center
Fri 06:53:21 PM 38.3956 -100.0508 265° West 387 445 38,000  Level Kansas City Center
Fri 06:54:23 PM 38.3858 -100.2031 265° West 388 447 38,000  Level Kansas City Center
Fri 06:55:25 PM 38.3800 -100.3358 267° West 391 450 38,000  Level Kansas City Center
Fri 06:56:27 PM 38.3733 -100.4903 267° West 392 451 38,000  Level Kansas City Center
Fri 06:57:29 PM 38.3697 -100.6214 268° West 391 450 38,000  Level Kansas City Center
Fri 06:58:31 PM 38.3650 -100.7719 268° West 385 443 38,000  Level Kansas City Center
Fri 06:59:33 PM 38.3606 -100.9014 268° West 384 442 38,000  Level Kansas City Center
Fri 07:00:35 PM 38.3550 -101.0547 267° West 388 447 38,000  Level Kansas City Center
Fri 07:01:22 PM 38.3517 -101.1639 268° West 389 448 38,000  Level Denver Center
Fri 07:02:24 PM 38.3467 -101.2939 267° West 385 443 38,000  Level Denver Center
Fri 07:03:26 PM 38.3406 -101.4481 267° West 391 450 38,000  Level Denver Center
Fri 07:04:28 PM 38.3361 -101.5781 268° West 387 445 38,000  Level Denver Center
Fri 07:05:30 PM 38.3294 -101.7269 267° West 381 438 38,000  Level Denver Center
Fri 07:06:32 PM 38.3236 -101.8558 267° West 382 440 38,000  Level Denver Center
Fri 07:07:34 PM 38.3178 -102.0064 267° West 383 441 38,000  Level Denver Center
Fri 07:08:36 PM 38.3119 -102.1353 267° West 381 438 38,000  Level Denver Center
Fri 07:09:39 PM 38.3042 -102.2867 266° West 384 442 38,000  Level Denver Center
Fri 07:10:41 PM 38.2983 -102.4153 267° West 382 440 38,000  Level Denver Center
Fri 07:11:55 PM 38.2914 -102.5664 267° West 385 443 38,000  Level Denver Center
Fri 07:12:57 PM 38.2839 -102.7153 266° West 380 437 38,000  Level Denver Center
Fri 07:13:59 PM 38.2767 -102.8650 267° West 381 438 38,000  Level Denver Center
Fri 07:15:01 PM 38.2700 -102.9986 266° West 393 452 38,000  Level Denver Center
Fri 07:16:03 PM 38.2617 -103.1481 266° West 388 447 38,000  Level Denver Center
Fri 07:17:05 PM 38.2556 -103.2778 267° West 386 444 38,000  Level Denver Center
Fri 07:18:07 PM 38.2469 -103.4281 266° West 383 441 38,000  Level Denver Center
Fri 07:19:10 PM 38.2397 -103.5556 266° West 379 436 38,000  Level Denver Center
Fri 07:20:12 PM 38.2308 -103.7039 266° West 379 436 38,000  Level Denver Center
Fri 07:21:14 PM 38.2236 -103.8314 266° West 379 436 38,000  Level Denver Center
Fri 07:22:16 PM 38.2144 -103.9800 266° West 380 437 38,000  Level Denver Center
Fri 07:23:30 PM 38.2069 -104.1069 266° West 379 436 38,000  Level Denver Center
Fri 07:24:32 PM 38.1961 -104.2744 265° West 375 432 38,000  Level Denver Center
Fri 07:25:34 PM 38.1864 -104.4225 265° West 377 434 38,000  Level Denver Center
Fri 07:26:36 PM 38.1783 -104.5500 265° West 380 437 38,000  Level Denver Center
Fri 07:27:39 PM 38.1692 -104.7014 266° West 384 442 38,000  Level Denver Center
Fri 07:28:41 PM 38.1597 -104.8331 265° West 390 449 38,000  Level Denver Center
Fri 07:29:43 PM 38.1492 -104.9844 265° West 388 447 38,000  Level Denver Center
Fri 07:30:45 PM 38.1406 -105.1089 265° West 376 433 38,000  Level Denver Center
Fri 07:31:47 PM 38.1294 -105.2664 265° West 396 456 38,000  Level Denver Center
Fri 07:32:49 PM 38.1200 -105.4008 265° West 400 460 38,000  Level Denver Center
Fri 07:33:51 PM 38.1094 -105.5533 265° West 392 451 38,000  Level Denver Center
Fri 07:34:53 PM 38.0997 -105.6883 265° West 399 459 38,000  Level Denver Center
Fri 07:35:55 PM 38.0875 -105.8317 264° West 371 427 38,000  Level Denver Center
Fri 07:36:57 PM 38.0778 -105.9561 264° West 369 425 38,000  Level Denver Center
Fri 07:37:59 PM 38.0686 -106.0842 265° West 378 435 38,000  Level Denver Center
Fri 07:39:01 PM 38.0561 -106.2322 264° West 379 436 38,000  Level Denver Center
Fri 07:40:03 PM 38.0472 -106.3578 265° West 375 432 38,000  Level Denver Center
Fri 07:41:05 PM 38.0350 -106.5056 264° West 377 434 38,000  Level Denver Center
Fri 07:42:07 PM 38.0228 -106.6333 263° West 385 443 38,000  Level Denver Center
Fri 07:43:09 PM 38.0097 -106.7842 264° West 387 445 38,000  Level Denver Center
Fri 07:44:12 PM 37.9989 -106.9133 264° West 386 444 38,000  Level Denver Center
Fri 07:45:14 PM 37.9864 -107.0628 264° West 382 440 38,000  Level Denver Center
Fri 07:46:16 PM 37.9736 -107.2067 264° West 381 438 38,000  Level Denver Center
Fri 07:47:18 PM 37.9628 -107.3367 264° West 387 445 38,000  Level Denver Center
Fri 07:48:20 PM 37.9486 -107.4869 263° West 387 445 38,000  Level Denver Center
Fri 07:49:22 PM 37.9375 -107.6153 264° West 384 442 38,000  Level Denver Center
Fri 07:50:24 PM 37.9236 -107.7650 263° West 384 442 38,000  Level Denver Center
Fri 07:51:26 PM 37.9111 -107.8950 263° West 388 447 38,000  Level Denver Center
Fri 07:52:28 PM 37.8981 -108.0267 263° West 393 452 38,000  Level Denver Center
Fri 07:53:30 PM 37.8842 -108.1769 263° West 387 445 38,000  Level Denver Center
Fri 07:54:32 PM 37.8714 -108.3047 263° West 384 442 38,000  Level Denver Center
Fri 07:55:34 PM 37.8567 -108.4542 263° West 384 442 38,000  Level Denver Center
Fri 07:56:36 PM 37.8439 -108.5797 263° West 381 438 38,000  Level Denver Center
Fri 07:57:38 PM 37.8294 -108.7242 263° West 374 430 38,000  Level Denver Center
Fri 07:58:41 PM 37.8167 -108.8497 263° West 375 432 38,000  Level Denver Center
Fri 07:59:43 PM 37.7922 -108.9950 258° West 374 430 38,000  Level Denver Center
Fri 08:00:57 PM 37.7628 -109.1164 253° West 376 433 38,000  Level Denver Center
Fri 08:01:59 PM 37.7231 -109.2764 253° West 375 432 38,000  Level Denver Center
Fri 08:03:01 PM 37.6875 -109.4169 252° West 376 433 38,000  Level Denver Center
Fri 08:04:03 PM 37.6578 -109.5353 252° West 373 429 38,000  Level Denver Center
Fri 08:05:05 PM 37.6233 -109.6747 253° West 373 429 38,000  Level Denver Center
Fri 08:06:07 PM 37.5925 -109.7950 252° West 376 433 38,000  Level Denver Center
Fri 08:07:09 PM 37.5622 -109.9147 252° West 375 432 38,000 -528 Level Denver Center
Fri 08:08:12 PM 37.5247 -110.0569 252° West 383 441 36,900 -960 Descending Denver Center
Fri 08:09:14 PM 37.4936 -110.1797 252° West 385 443 36,000 -435 Descending Denver Center
Fri 08:10:16 PM 37.4586 -110.3192 252° West 385 443 36,000  Level Denver Center
Fri 08:11:18 PM 37.4256 -110.4450 252° West 381 438 36,000  Level Denver Center
Fri 08:12:20 PM 37.3919 -110.5700 251° West 378 435 36,000 -532 Level Denver Center
Fri 08:13:22 PM 37.3542 -110.7153 252° West 365 420 34,900 -968 Descending Denver Center
Fri 08:14:24 PM 37.3225 -110.8361 252° West 366 421 34,000 -919 Descending Denver Center
Fri 08:15:26 PM 37.2889 -110.9664 252° West 389 448 33,000 -919 Descending Denver Center
Fri 08:16:28 PM 37.2528 -111.0956 251° West 392 451 32,100 -484 Descending Denver Center
Fri 08:17:30 PM 37.2183 -111.2253 252° West 392 451 32,000 -48 Descending Denver Center
Fri 08:18:32 PM 37.1828 -111.3550 251° West 394 453 32,000  Level Denver Center
Fri 08:19:34 PM 37.1417 -111.5086 251° West 388 447 32,000  Level Denver Center
Fri 08:20:36 PM 37.1075 -111.6378 252° West 389 448 32,000  Level Denver Center
Fri 08:21:12 PM 37.0850 -111.7169 250° West 392 451 32,000  Level Los Angeles Center
Fri 08:22:14 PM 37.0481 -111.8444 250° West 390 449 32,000 -484 Level Los Angeles Center
Fri 08:23:16 PM 37.0158 -111.9653 252° West 372 428 31,000 -484 Descending Los Angeles Center
Fri 08:24:18 PM 36.9828 -112.0853 251° West 365 420 31,000  Level Los Angeles Center
Fri 08:25:20 PM 36.9494 -112.2050 251° West 364 419 31,000 -290 Level Los Angeles Center
Fri 08:26:22 PM 36.9156 -112.3253 251° West 365 420 30,400 -919 Descending Los Angeles Center
Fri 08:27:24 PM 36.8819 -112.4669 254° West 356 410 29,100 -1,113 Descending Los Angeles Center
Fri 08:28:26 PM 36.8758 -112.5856 266° West 345 397 28,100 -581 Descending Los Angeles Center
Fri 08:29:28 PM 36.8703 -112.7019 267° West 339 390 27,900 -581 Descending Los Angeles Center
Fri 08:30:30 PM 36.8622 -112.8192 265° West 338 389 26,900 -968 Descending Los Angeles Center
Fri 08:31:32 PM 36.8556 -112.9347 266° West 335 386 25,900 -960 Descending Los Angeles Center
Fri 08:32:35 PM 36.8422 -113.0492 262° West 334 384 24,900 -912 Descending Los Angeles Center
Fri 08:33:37 PM 36.8125 -113.1631 252° West 343 395 24,000 -435 Descending Los Angeles Center
Fri 08:34:39 PM 36.7786 -113.2969 252° West 338 389 24,000  Level Los Angeles Center
Fri 08:35:41 PM 36.7497 -113.4106 252° West 343 395 24,000  Level Los Angeles Center
Fri 08:36:43 PM 36.7189 -113.5286 252° West 356 410 24,000  Level Los Angeles Center
Fri 08:37:45 PM 36.6875 -113.6567 253° West 382 440 24,000 -48 Level Los Angeles Center
Fri 08:38:47 PM 36.6533 -113.7839 252° West 386 444 23,900 -1,016 Descending Los Angeles Center
Fri 08:39:49 PM 36.6214 -113.9078 252° West 379 436 21,900 -2,162 Descending Los Angeles Center
Fri 08:41:03 PM 36.5781 -114.0714 252° West 358 412 19,000 -2,134 Descending Los Angeles Center
Fri 08:42:18 PM 36.5208 -114.1992 241° Southwest 356 410 16,600 -1,897 Descending Los Angeles Center
Fri 08:43:19 PM 36.4783 -114.2928 241° Southwest 356 410 14,700 -2,162 Descending Los Angeles Center
Fri 08:44:09 PM 36.4283 -114.4014 240° Southwest 351 404 12,600 -1,920 Descending Los Angeles Center
Fri 08:44:34 PM 36.4125 -114.4111 206° Southwest 355 409 12,300 -1,180 Descending Los Angeles Center
Fri 08:45:10 PM 36.3389 -114.4372 196° South 338 389 11,400 -1,355 Descending Los Angeles Center
Fri 08:45:36 PM 36.3036 -114.4439 189° South 338 389 10,900 -1,180 Descending Los Angeles Center
Fri 08:46:11 PM 36.2533 -114.4611 195° South 317 365 10,200 -1,258 Descending Los Angeles Center
Fri 08:46:38 PM 36.2208 -114.4683 190° South 312 359 9,600 -1,500 Descending Los Angeles Center
Fri 08:47:11 PM 36.1722 -114.4858 196° South 304 350 8,700 -1,258 Descending Los Angeles Center
Fri 08:47:40 PM 36.1436 -114.5025 205° Southwest 309 356 8,300 -689 Descending Los Angeles Center
Fri 08:48:12 PM 36.1222 -114.5617 246° West 270 311 8,000 -194 Descending Los Angeles Center
Fri 08:48:42 PM 36.1144 -114.5853 248° West 270 311 8,100 98 Climbing Los Angeles Center
Fri 08:49:13 PM 36.1003 -114.6383 252° West 241 277 8,100  Level Los Angeles Center
Fri 08:49:44 PM 36.0917 -114.6631 247° West 253 291 8,100  Level Los Angeles Center
Fri 08:50:14 PM 36.0764 -114.7156 250° West 239 275 8,100 -97 Level Los Angeles Center
Fri 08:50:46 PM 36.0703 -114.7575 260° West 244 281 8,000 -787 Descending Los Angeles Center
Fri 08:51:15 PM 36.0725 -114.7967 274° West 241 277 7,300 -1,161 Descending Los Angeles Center
Fri 08:51:48 PM 36.0733 -114.8375 271° West 238 274 6,800 -1,300 Descending Los Angeles Center
Fri 08:52:15 PM 36.0728 -114.8764 269° West 235 270 6,000 -1,355 Descending Los Angeles Center
Fri 08:52:50 PM 36.0733 -114.9156 271° West 231 266 5,400 -1,082 Descending Los Angeles Center
Fri 08:53:16 PM 36.0739 -114.9506 271° West 187 215 4,900 -968 Descending Los Angeles Center
Fri 08:53:52 PM 36.0719 -114.9781 265° West 206 237 4,400 -984 Descending Los Angeles Center
Fri 08:54:17 PM 36.0739 -115.0092 274° West 170 196 3,900 -774 Descending Los Angeles Center
Fri 08:54:54 PM 36.0739 -115.0339 270° West 181 208 3,600 -787 Descending Los Angeles Center
Fri 08:55:18 PM 36.0725 -115.0628 267° West 158 182 3,100 -774 Descending Los Angeles Center
Fri 08:55:56 PM 36.0736 -115.0861 273° West 165 190 2,800 -787 Descending Los Angeles Center
Fri 08:56:19 PM 36.0747 -115.1128 273° West 148 170 2,300 -677 Descending Los Angeles Center
Fri 08:56:58 PM 36.0742 -115.1450 269° West 153 176 2,100 -308 Descending Los Angeles Center
Fri 08:58:00 PM 36.0667 -115.1500 219° Southwest  Level FlightAware Approximate
Fri 09:05:00 PM 36.0801 -115.1523 219° Southwest  Level Estimated

Login

Don't have an account? Register now (free) for customized features, flight alerts, and more!